sensor_id;sensor_type;location;lat;lon;timestamp;pressure;altitude;pressure_sealevel;temperature;humidity
70445;BME280;57902;49.638;11.070;2022-11-20T00:01:25;97821.63;;;-0.14;100.00
70445;BME280;57902;49.638;11.070;2022-11-20T00:03:54;97827.53;;;-0.12;100.00
70445;BME280;57902;49.638;11.070;2022-11-20T00:06:21;97816.56;;;-0.14;100.00
70445;BME280;57902;49.638;11.070;2022-11-20T00:08:48;97825.84;;;-0.13;100.00
70445;BME280;57902;49.638;11.070;2022-11-20T00:11:18;97825.00;;;-0.12;100.00
70445;BME280;57902;49.638;11.070;2022-11-20T00:13:46;97808.97;;;-0.17;100.00
70445;BME280;57902;49.638;11.070;2022-11-20T00:16:14;97800.47;;;-0.20;100.00
70445;BME280;57902;49.638;11.070;2022-11-20T00:18:41;97816.50;;;-0.21;100.00
70445;BME280;57902;49.638;11.070;2022-11-20T00:21:20;97813.16;;;-0.18;100.00
70445;BME280;57902;49.638;11.070;2022-11-20T00:23:48;97814.84;;;-0.19;100.00
70445;BME280;57902;49.638;11.070;2022-11-20T00:26:17;97816.56;;;-0.19;100.00
70445;BME280;57902;49.638;11.070;2022-11-20T00:28:49;97814.88;;;-0.15;100.00
70445;BME280;57902;49.638;11.070;2022-11-20T00:31:16;97803.91;;;-0.13;100.00
70445;BME280;57902;49.638;11.070;2022-11-20T00:33:44;97804.75;;;-0.11;100.00
70445;BME280;57902;49.638;11.070;2022-11-20T00:36:16;97805.59;;;-0.10;100.00
70445;BME280;57902;49.638;11.070;2022-11-20T00:38:43;97804.75;;;-0.09;100.00
70445;BME280;57902;49.638;11.070;2022-11-20T00:41:15;97799.69;;;-0.08;100.00
70445;BME280;57902;49.638;11.070;2022-11-20T00:43:42;97812.38;;;-0.02;100.00
70445;BME280;57902;49.638;11.070;2022-11-20T00:46:12;97816.63;;;0.01;100.00
70445;BME280;57902;49.638;11.070;2022-11-20T00:48:39;97814.91;;;-0.03;100.00
70445;BME280;57902;49.638;11.070;2022-11-20T00:51:06;97823.38;;;-0.04;100.00
70445;BME280;57902;49.638;11.070;2022-11-20T00:53:33;97826.78;;;0.01;100.00
70445;BME280;57902;49.638;11.070;2022-11-20T00:56:01;97820.03;;;0.00;100.00
70445;BME280;57902;49.638;11.070;2022-11-20T00:58:34;97818.34;;;0.02;100.00
70445;BME280;57902;49.638;11.070;2022-11-20T01:01:06;97818.31;;;-0.01;100.00
70445;BME280;57902;49.638;11.070;2022-11-20T01:03:39;97820.88;;;0.02;100.00
70445;BME280;57902;49.638;11.070;2022-11-20T01:09:00;97819.16;;;0.01;100.00
70445;BME280;57902;49.638;11.070;2022-11-20T01:11:59;97824.25;;;0.04;100.00
70445;BME280;57902;49.638;11.070;2022-11-20T01:17:28;97829.31;;;0.07;100.00
70445;BME280;57902;49.638;11.070;2022-11-20T01:20:09;97835.25;;;0.06;100.00
70445;BME280;57902;49.638;11.070;2022-11-20T01:22:41;97826.72;;;-0.10;100.00
70445;BME280;57902;49.638;11.070;2022-11-20T01:28:00;97824.19;;;-0.08;100.00
70445;BME280;57902;49.638;11.070;2022-11-20T01:30:33;97822.50;;;-0.08;100.00
70445;BME280;57902;49.638;11.070;2022-11-20T01:33:24;97819.97;;;-0.06;100.00
70445;BME280;57902;49.638;11.070;2022-11-20T01:36:27;97825.84;;;-0.10;100.00
70445;BME280;57902;49.638;11.070;2022-11-20T01:39:23;97825.91;;;-0.06;100.00
70445;BME280;57902;49.638;11.070;2022-11-20T01:41:58;97828.44;;;-0.04;100.00
70445;BME280;57902;49.638;11.070;2022-11-20T01:44:54;97819.16;;;-0.04;100.00
70445;BME280;57902;49.638;11.070;2022-11-20T01:50:50;97820.88;;;0.01;100.00
70445;BME280;57902;49.638;11.070;2022-11-20T01:53:35;97825.94;;;0.02;100.00
70445;BME280;57902;49.638;11.070;2022-11-20T01:56:09;97820.88;;;0.04;100.00
70445;BME280;57902;49.638;11.070;2022-11-20T01:58:42;97823.44;;;0.08;100.00
70445;BME280;57902;49.638;11.070;2022-11-20T02:01:11;97817.53;;;0.08;100.00
70445;BME280;57902;49.638;11.070;2022-11-20T02:03:39;97825.13;;;0.09;100.00
70445;BME280;57902;49.638;11.070;2022-11-20T02:06:17;97815.00;;;0.09;100.00
70445;BME280;57902;49.638;11.070;2022-11-20T02:08:45;97817.53;;;0.06;100.00
70445;BME280;57902;49.638;11.070;2022-11-20T02:11:12;97814.13;;;0.09;100.00
70445;BME280;57902;49.638;11.070;2022-11-20T02:13:39;97819.25;;;0.12;100.00
70445;BME280;57902;49.638;11.070;2022-11-20T02:18:44;97804.06;;;0.18;100.00
70445;BME280;57902;49.638;11.070;2022-11-20T02:21:21;97804.88;;;0.15;100.00
70445;BME280;57902;49.638;11.070;2022-11-20T02:26:39;97807.41;;;0.17;100.00
70445;BME280;57902;49.638;11.070;2022-11-20T02:29:08;97796.44;;;0.20;100.00
70445;BME280;57902;49.638;11.070;2022-11-20T02:31:47;97797.28;;;0.20;100.00
70445;BME280;57902;49.638;11.070;2022-11-20T02:34:18;97804.06;;;0.20;100.00
70445;BME280;57902;49.638;11.070;2022-11-20T02:36:46;97808.28;;;0.21;100.00
70445;BME280;57902;49.638;11.070;2022-11-20T02:39:18;97803.19;;;0.17;100.00
70445;BME280;57902;49.638;11.070;2022-11-20T02:41:57;97813.38;;;0.21;100.00
70445;BME280;57902;49.638;11.070;2022-11-20T02:44:23;97810.84;;;0.22;100.00
70445;BME280;57902;49.638;11.070;2022-11-20T02:46:50;97800.66;;;0.17;100.00
70445;BME280;57902;49.638;11.070;2022-11-20T02:49:16;97798.97;;;0.10;100.00
70445;BME280;57902;49.638;11.070;2022-11-20T02:51:43;97791.28;;;0.01;100.00
70445;BME280;57902;49.638;11.070;2022-11-20T02:54:39;97809.91;;;0.00;100.00
70445;BME280;57902;49.638;11.070;2022-11-20T02:57:24;97812.44;;;0.03;100.00
70445;BME280;57902;49.638;11.070;2022-11-20T03:00:16;97809.91;;;0.08;100.00
70445;BME280;57902;49.638;11.070;2022-11-20T03:02:45;97807.41;;;0.11;100.00
70445;BME280;57902;49.638;11.070;2022-11-20T03:05:12;97802.34;;;0.14;100.00
70445;BME280;57902;49.638;11.070;2022-11-20T03:07:38;97791.38;;;0.20;100.00
70445;BME280;57902;49.638;11.070;2022-11-20T03:10:08;97789.69;;;0.19;100.00
70445;BME280;57902;49.638;11.070;2022-11-20T03:12:47;97779.53;;;0.19;100.00
70445;BME280;57902;49.638;11.070;2022-11-20T03:15:13;97776.19;;;0.20;100.00
70445;BME280;57902;49.638;11.070;2022-11-20T03:17:40;97780.38;;;0.19;100.00
70445;BME280;57902;49.638;11.070;2022-11-20T03:20:07;97771.94;;;0.20;100.00
70445;BME280;57902;49.638;11.070;2022-11-20T03:22:34;97779.53;;;0.19;100.00
70445;BME280;57902;49.638;11.070;2022-11-20T03:25:00;97776.19;;;0.24;100.00
70445;BME280;57902;49.638;11.070;2022-11-20T03:27:27;97767.75;;;0.25;100.00
70445;BME280;57902;49.638;11.070;2022-11-20T03:29:58;97773.66;;;0.30;100.00
70445;BME280;57902;49.638;11.070;2022-11-20T03:32:25;97776.19;;;0.26;100.00
70445;BME280;57902;49.638;11.070;2022-11-20T03:34:51;97774.47;;;0.25;100.00
70445;BME280;57902;49.638;11.070;2022-11-20T03:37:18;97780.41;;;0.24;100.00
70445;BME280;57902;49.638;11.070;2022-11-20T03:39:44;97783.78;;;0.23;100.00
70445;BME280;57902;49.638;11.070;2022-11-20T03:42:10;97773.66;;;0.30;100.00
70445;BME280;57902;49.638;11.070;2022-11-20T03:44:57;97770.28;;;0.25;100.00
70445;BME280;57902;49.638;11.070;2022-11-20T03:47:23;97766.06;;;0.29;100.00
70445;BME280;57902;49.638;11.070;2022-11-20T03:49:57;97774.47;;;0.25;100.00
70445;BME280;57902;49.638;11.070;2022-11-20T03:52:27;97774.47;;;0.25;100.00
70445;BME280;57902;49.638;11.070;2022-11-20T03:54:54;97758.44;;;0.24;100.00
70445;BME280;57902;49.638;11.070;2022-11-20T03:57:20;97768.59;;;0.26;100.00
70445;BME280;57902;49.638;11.070;2022-11-20T03:59:47;97766.03;;;0.24;100.00
70445;BME280;57902;49.638;11.070;2022-11-20T04:02:13;97758.44;;;0.26;100.00
70445;BME280;57902;49.638;11.070;2022-11-20T04:04:40;97750.00;;;0.21;100.00
70445;BME280;57902;49.638;11.070;2022-11-20T04:07:12;97750.81;;;0.20;100.00
70445;BME280;57902;49.638;11.070;2022-11-20T04:09:40;97750.81;;;0.20;100.00
70445;BME280;57902;49.638;11.070;2022-11-20T04:12:06;97750.81;;;0.20;100.00
70445;BME280;57902;49.638;11.070;2022-11-20T04:14:33;97749.13;;;0.19;100.00
70445;BME280;57902;49.638;11.070;2022-11-20T04:17:00;97753.34;;;0.18;100.00
70445;BME280;57902;49.638;11.070;2022-11-20T04:19:26;97761.78;;;0.17;100.00
70445;BME280;57902;49.638;11.070;2022-11-20T04:21:53;97756.72;;;0.17;100.00
70445;BME280;57902;49.638;11.070;2022-11-20T04:24:21;97760.97;;;0.20;100.00
70445;BME280;57902;49.638;11.070;2022-11-20T04:26:50;97760.97;;;0.23;100.00
70445;BME280;57902;49.638;11.070;2022-11-20T04:29:17;97753.38;;;0.23;100.00
70445;BME280;57902;49.638;11.070;2022-11-20T04:31:54;97750.00;;;0.25;100.00
70445;BME280;57902;49.638;11.070;2022-11-20T04:34:20;97754.19;;;0.22;100.00
70445;BME280;57902;49.638;11.070;2022-11-20T04:36:47;97742.38;;;0.21;100.00
70445;BME280;57902;49.638;11.070;2022-11-20T04:39:14;97752.53;;;0.21;100.00
70445;BME280;57902;49.638;11.070;2022-11-20T04:41:41;97744.88;;;0.19;100.00
70445;BME280;57902;49.638;11.070;2022-11-20T04:44:08;97751.66;;;0.23;100.00
70445;BME280;57902;49.638;11.070;2022-11-20T04:46:40;97748.28;;;0.23;100.00
70445;BME280;57902;49.638;11.070;2022-11-20T04:49:08;97751.66;;;0.25;100.00
70445;BME280;57902;49.638;11.070;2022-11-20T04:51:34;97755.06;;;0.27;100.00
70445;BME280;57902;49.638;11.070;2022-11-20T04:54:04;97745.78;;;0.26;100.00
70445;BME280;57902;49.638;11.070;2022-11-20T04:56:31;97743.22;;;0.26;100.00
70445;BME280;57902;49.638;11.070;2022-11-20T04:59:02;97747.47;;;0.33;100.00
70445;BME280;57902;49.638;11.070;2022-11-20T05:01:29;97746.59;;;0.29;100.00
70445;BME280;57902;49.638;11.070;2022-11-20T05:04:11;97741.53;;;0.28;100.00
70445;BME280;57902;49.638;11.070;2022-11-20T05:06:40;97745.78;;;0.29;100.00
70445;BME280;57902;49.638;11.070;2022-11-20T05:09:07;97742.41;;;0.28;100.00
70445;BME280;57902;49.638;11.070;2022-11-20T05:11:34;97746.66;;;0.31;100.00
70445;BME280;57902;49.638;11.070;2022-11-20T05:14:00;97744.09;;;0.31;100.00
70445;BME280;57902;49.638;11.070;2022-11-20T05:16:27;97744.06;;;0.29;100.00
70445;BME280;57902;49.638;11.070;2022-11-20T05:18:54;97744.88;;;0.19;100.00
70445;BME280;57902;49.638;11.070;2022-11-20T05:21:21;97750.84;;;0.23;100.00
70445;BME280;57902;49.638;11.070;2022-11-20T05:23:48;97744.94;;;0.27;100.00
70445;BME280;57902;49.638;11.070;2022-11-20T05:26:20;97752.53;;;0.24;100.00
70445;BME280;57902;49.638;11.070;2022-11-20T05:28:48;97754.22;;;0.25;100.00
70445;BME280;57902;49.638;11.070;2022-11-20T05:31:17;97745.78;;;0.26;100.00
70445;BME280;57902;49.638;11.070;2022-11-20T05:33:52;97729.72;;;0.28;100.00
70445;BME280;57902;49.638;11.070;2022-11-20T05:36:19;97722.97;;;0.29;100.00
70445;BME280;57902;49.638;11.070;2022-11-20T05:38:49;97715.34;;;0.29;100.00
70445;BME280;57902;49.638;11.070;2022-11-20T05:41:19;97727.19;;;0.30;100.00
70445;BME280;57902;49.638;11.070;2022-11-20T05:43:48;97726.34;;;0.31;100.00
70445;BME280;57902;49.638;11.070;2022-11-20T05:46:17;97725.50;;;0.29;100.00
70445;BME280;57902;49.638;11.070;2022-11-20T05:48:50;97722.13;;;0.30;100.00
70445;BME280;57902;49.638;11.070;2022-11-20T05:51:18;97715.34;;;0.33;100.00
70445;BME280;57902;49.638;11.070;2022-11-20T05:53:45;97717.88;;;0.33;100.00
70445;BME280;57902;49.638;11.070;2022-11-20T05:56:16;97722.97;;;0.35;100.00
70445;BME280;57902;49.638;11.070;2022-11-20T05:58:44;97720.44;;;0.35;100.00
70445;BME280;57902;49.638;11.070;2022-11-20T06:01:14;97720.44;;;0.37;100.00
70445;BME280;57902;49.638;11.070;2022-11-20T06:03:41;97722.13;;;0.36;100.00
70445;BME280;57902;49.638;11.070;2022-11-20T06:06:18;97721.28;;;0.37;100.00
70445;BME280;57902;49.638;11.070;2022-11-20T06:08:45;97723.84;;;0.40;100.00
70445;BME280;57902;49.638;11.070;2022-11-20T06:11:12;97722.13;;;0.39;100.00
70445;BME280;57902;49.638;11.070;2022-11-20T06:13:40;97722.13;;;0.41;100.00
70445;BME280;57902;49.638;11.070;2022-11-20T06:16:08;97716.22;;;0.42;100.00
70445;BME280;57902;49.638;11.070;2022-11-20T06:18:36;97719.59;;;0.42;100.00
70445;BME280;57902;49.638;11.070;2022-11-20T06:21:08;97721.31;;;0.43;100.00
70445;BME280;57902;49.638;11.070;2022-11-20T06:23:38;97729.75;;;0.41;100.00
70445;BME280;57902;49.638;11.070;2022-11-20T06:26:07;97722.97;;;0.40;100.00
70445;BME280;57902;49.638;11.070;2022-11-20T06:28:34;97724.66;;;0.44;100.00
70445;BME280;57902;49.638;11.070;2022-11-20T06:31:01;97721.31;;;0.46;100.00
70445;BME280;57902;49.638;11.070;2022-11-20T06:33:28;97722.13;;;0.42;100.00
70445;BME280;57902;49.638;11.070;2022-11-20T06:35:59;97722.13;;;0.41;100.00
70445;BME280;57902;49.638;11.070;2022-11-20T06:38:32;97732.28;;;0.39;100.00
70445;BME280;57902;49.638;11.070;2022-11-20T06:40:59;97724.66;;;0.41;100.00
70445;BME280;57902;49.638;11.070;2022-11-20T06:43:28;97731.44;;;0.42;100.00
70445;BME280;57902;49.638;11.070;2022-11-20T06:45:58;97728.06;;;0.43;100.00
70445;BME280;57902;49.638;11.070;2022-11-20T06:48:26;97724.66;;;0.44;100.00
70445;BME280;57902;49.638;11.070;2022-11-20T06:50:55;97729.75;;;0.45;100.00
70445;BME280;57902;49.638;11.070;2022-11-20T06:53:22;97723.00;;;0.46;100.00
70445;BME280;57902;49.638;11.070;2022-11-20T06:55:49;97728.06;;;0.47;100.00
70445;BME280;57902;49.638;11.070;2022-11-20T06:58:17;97728.91;;;0.51;100.00
70445;BME280;57902;49.638;11.070;2022-11-20T07:00:44;97725.53;;;0.58;100.00
70445;BME280;57902;49.638;11.070;2022-11-20T07:03:11;97731.44;;;0.56;100.00
70445;BME280;57902;49.638;11.070;2022-11-20T07:05:38;97736.53;;;0.52;100.00
70445;BME280;57902;49.638;11.070;2022-11-20T07:08:05;97737.38;;;0.55;100.00
70445;BME280;57902;49.638;11.070;2022-11-20T07:10:32;97748.38;;;0.55;100.00
70445;BME280;57902;49.638;11.070;2022-11-20T07:12:59;97744.13;;;0.56;100.00
70445;BME280;57902;49.638;11.070;2022-11-20T07:15:26;97747.53;;;0.58;100.00
70445;BME280;57902;49.638;11.070;2022-11-20T07:17:52;97736.53;;;0.57;100.00
70445;BME280;57902;49.638;11.070;2022-11-20T07:20:19;97734.84;;;0.55;100.00
70445;BME280;57902;49.638;11.070;2022-11-20T07:22:53;97736.53;;;0.59;100.00
70445;BME280;57902;49.638;11.070;2022-11-20T07:25:21;97737.38;;;0.59;100.00
70445;BME280;57902;49.638;11.070;2022-11-20T07:27:48;97737.38;;;0.61;100.00
70445;BME280;57902;49.638;11.070;2022-11-20T07:30:16;97735.69;;;0.64;100.00
70445;BME280;57902;49.638;11.070;2022-11-20T07:32:46;97734.84;;;0.68;100.00
70445;BME280;57902;49.638;11.070;2022-11-20T07:35:12;97745.00;;;0.67;100.00
70445;BME280;57902;49.638;11.070;2022-11-20T07:37:39;97753.47;;;0.71;100.00
70445;BME280;57902;49.638;11.070;2022-11-20T07:40:06;97746.69;;;0.73;100.00
70445;BME280;57902;49.638;11.070;2022-11-20T07:42:32;97749.25;;;0.69;100.00
70445;BME280;57902;49.638;11.070;2022-11-20T07:44:58;97748.38;;;0.69;100.00
70445;BME280;57902;49.638;11.070;2022-11-20T07:47:25;97740.75;;;0.63;100.00
70445;BME280;57902;49.638;11.070;2022-11-20T07:49:51;97747.53;;;0.65;100.00
70445;BME280;57902;49.638;11.070;2022-11-20T07:52:18;97755.97;;;0.63;100.00
70445;BME280;57902;49.638;11.070;2022-11-20T07:54:44;97751.78;;;0.62;100.00
70445;BME280;57902;49.638;11.070;2022-11-20T07:57:11;97757.69;;;0.67;100.00
70445;BME280;57902;49.638;11.070;2022-11-20T07:59:37;97750.91;;;0.63;100.00
70445;BME280;57902;49.638;11.070;2022-11-20T08:02:05;97747.53;;;0.64;100.00
70445;BME280;57902;49.638;11.070;2022-11-20T08:04:31;97752.59;;;0.65;100.00
70445;BME280;57902;49.638;11.070;2022-11-20T08:06:59;97743.31;;;0.67;100.00
70445;BME280;57902;49.638;11.070;2022-11-20T08:09:26;97743.31;;;0.69;100.00
70445;BME280;57902;49.638;11.070;2022-11-20T08:11:52;97739.94;;;0.76;100.00
70445;BME280;57902;49.638;11.070;2022-11-20T08:14:37;97747.53;;;0.78;100.00
70445;BME280;57902;49.638;11.070;2022-11-20T08:17:04;97750.09;;;0.82;100.00
70445;BME280;57902;49.638;11.070;2022-11-20T08:19:30;97743.31;;;0.87;100.00
70445;BME280;57902;49.638;11.070;2022-11-20T08:21:57;97739.94;;;0.92;100.00
70445;BME280;57902;49.638;11.070;2022-11-20T08:24:23;97743.31;;;0.98;100.00
70445;BME280;57902;49.638;11.070;2022-11-20T08:26:50;97738.28;;;1.00;100.00
70445;BME280;57902;49.638;11.070;2022-11-20T08:29:17;97744.19;;;1.02;100.00
70445;BME280;57902;49.638;11.070;2022-11-20T08:31:44;97739.94;;;1.04;100.00
70445;BME280;57902;49.638;11.070;2022-11-20T08:34:11;97741.63;;;1.08;100.00
70445;BME280;57902;49.638;11.070;2022-11-20T08:36:44;97739.94;;;1.07;100.00
70445;BME280;57902;49.638;11.070;2022-11-20T08:39:13;97735.72;;;1.12;100.00
70445;BME280;57902;49.638;11.070;2022-11-20T08:41:40;97738.22;;;1.21;100.00
70445;BME280;57902;49.638;11.070;2022-11-20T08:44:07;97741.63;;;1.19;100.00
70445;BME280;57902;49.638;11.070;2022-11-20T08:46:37;97739.06;;;1.16;100.00
70445;BME280;57902;49.638;11.070;2022-11-20T08:49:05;97750.94;;;1.18;100.00
70445;BME280;57902;49.638;11.070;2022-11-20T08:51:32;97754.31;;;1.24;100.00
70445;BME280;57902;49.638;11.070;2022-11-20T08:53:59;97750.91;;;1.25;100.00
70445;BME280;57902;49.638;11.070;2022-11-20T08:56:25;97741.63;;;1.27;100.00
70445;BME280;57902;49.638;11.070;2022-11-20T08:58:52;97741.63;;;1.25;100.00
70445;BME280;57902;49.638;11.070;2022-11-20T09:01:38;97741.63;;;1.28;100.00
70445;BME280;57902;49.638;11.070;2022-11-20T09:04:05;97736.53;;;1.28;100.00
70445;BME280;57902;49.638;11.070;2022-11-20T09:06:32;97738.22;;;1.28;100.00
70445;BME280;57902;49.638;11.070;2022-11-20T09:08:58;97741.63;;;1.30;100.00
70445;BME280;57902;49.638;11.070;2022-11-20T09:11:32;97739.91;;;1.30;100.00
70445;BME280;57902;49.638;11.070;2022-11-20T09:13:58;97737.38;;;1.29;100.00
70445;BME280;57902;49.638;11.070;2022-11-20T09:16:26;97738.22;;;1.25;100.00
70445;BME280;57902;49.638;11.070;2022-11-20T09:18:52;97736.56;;;1.25;100.00
70445;BME280;57902;49.638;11.070;2022-11-20T09:21:38;97738.22;;;1.25;100.00
70445;BME280;57902;49.638;11.070;2022-11-20T09:24:05;97737.38;;;1.26;100.00
70445;BME280;57902;49.638;11.070;2022-11-20T09:26:31;97739.09;;;1.24;100.00
70445;BME280;57902;49.638;11.070;2022-11-20T09:28:58;97740.75;;;1.29;100.00
70445;BME280;57902;49.638;11.070;2022-11-20T09:31:25;97739.94;;;1.24;100.00
70445;BME280;57902;49.638;11.070;2022-11-20T09:33:52;97739.09;;;1.20;100.00
70445;BME280;57902;49.638;11.070;2022-11-20T09:36:18;97739.94;;;1.18;100.00
70445;BME280;57902;49.638;11.070;2022-11-20T09:38:45;97735.69;;;1.18;100.00
70445;BME280;57902;49.638;11.070;2022-11-20T09:41:36;97734.03;;;1.22;100.00
70445;BME280;57902;49.638;11.070;2022-11-20T09:54:43;97751.78;;;1.24;100.00
70445;BME280;57902;49.638;11.070;2022-11-20T09:57:19;97746.72;;;1.22;100.00
70445;BME280;57902;49.638;11.070;2022-11-20T09:59:56;97752.63;;;1.22;100.00
70445;BME280;57902;49.638;11.070;2022-11-20T10:05:18;97758.56;;;1.32;100.00
70445;BME280;57902;49.638;11.070;2022-11-20T10:10:38;97739.91;;;1.38;100.00
70445;BME280;57902;49.638;11.070;2022-11-20T10:29:34;97712.78;;;1.46;100.00
70445;BME280;57902;49.638;11.070;2022-11-20T10:32:08;97714.50;;;1.47;100.00
70445;BME280;57902;49.638;11.070;2022-11-20T10:34:50;97720.44;;;1.43;100.00
70445;BME280;57902;49.638;11.070;2022-11-20T10:37:52;97712.81;;;1.42;100.00
70445;BME280;57902;49.638;11.070;2022-11-20T10:40:31;97709.44;;;1.43;100.00
70445;BME280;57902;49.638;11.070;2022-11-20T10:43:06;97707.72;;;1.45;100.00
70445;BME280;57902;49.638;11.070;2022-11-20T10:45:40;97706.03;;;1.50;100.00
70445;BME280;57902;49.638;11.070;2022-11-20T10:48:22;97709.41;;;1.49;100.00
70445;BME280;57902;49.638;11.070;2022-11-20T10:53:57;97712.78;;;1.52;100.00
70445;BME280;57902;49.638;11.070;2022-11-20T10:56:42;97709.41;;;1.53;100.00
70445;BME280;57902;49.638;11.070;2022-11-20T11:02:24;97717.84;;;1.62;100.00
70445;BME280;57902;49.638;11.070;2022-11-20T11:04:54;97713.59;;;1.62;100.00
70445;BME280;57902;49.638;11.070;2022-11-20T11:07:39;97726.31;;;1.62;100.00
70445;BME280;57902;49.638;11.070;2022-11-20T11:12:46;97727.97;;;1.74;100.00
70445;BME280;57902;49.638;11.070;2022-11-20T11:15:25;97721.16;;;1.76;100.00
70445;BME280;57902;49.638;11.070;2022-11-20T11:17:52;97716.09;;;1.82;100.00
70445;BME280;57902;49.638;11.070;2022-11-20T11:20:25;97721.16;;;1.87;100.00
70445;BME280;57902;49.638;11.070;2022-11-20T11:22:57;97719.41;;;1.93;100.00
70445;BME280;57902;49.638;11.070;2022-11-20T11:27:59;97706.69;;;1.95;100.00
70445;BME280;57902;49.638;11.070;2022-11-20T11:30:28;97695.66;;;1.99;100.00
70445;BME280;57902;49.638;11.070;2022-11-20T11:33:09;97695.59;;;2.15;100.00
70445;BME280;57902;49.638;11.070;2022-11-20T11:35:44;97693.81;;;2.29;100.00
70445;BME280;57902;49.638;11.070;2022-11-20T11:38:21;97692.00;;;2.43;100.00
70445;BME280;57902;49.638;11.070;2022-11-20T11:40:53;97691.91;;;2.60;100.00
70445;BME280;57902;49.638;11.070;2022-11-20T11:43:23;97689.25;;;2.73;100.00
70445;BME280;57902;49.638;11.070;2022-11-20T11:46:24;97684.06;;;2.87;100.00
70445;BME280;57902;49.638;11.070;2022-11-20T11:49:00;97686.50;;;3.01;100.00
70445;BME280;57902;49.638;11.070;2022-11-20T11:54:00;97680.44;;;3.12;100.00
70445;BME280;57902;49.638;11.070;2022-11-20T11:56:28;97693.94;;;3.22;100.00
70445;BME280;57902;49.638;11.070;2022-11-20T11:59:00;97682.84;;;3.29;100.00
70445;BME280;57902;49.638;11.070;2022-11-20T12:01:42;97674.25;;;3.37;100.00
70445;BME280;57902;49.638;11.070;2022-11-20T12:07:09;97664.78;;;3.51;100.00
70445;BME280;57902;49.638;11.070;2022-11-20T12:09:57;97662.25;;;3.49;100.00
70445;BME280;57902;49.638;11.070;2022-11-20T12:12:28;97671.59;;;3.46;100.00
70445;BME280;57902;49.638;11.070;2022-11-20T12:14:57;97676.59;;;3.55;100.00
70445;BME280;57902;49.638;11.070;2022-11-20T12:17:24;97676.59;;;3.55;100.00
70445;BME280;57902;49.638;11.070;2022-11-20T12:19:51;97681.66;;;3.61;100.00
70445;BME280;57902;49.638;11.070;2022-11-20T12:25:24;97683.28;;;3.64;100.00
70445;BME280;57902;49.638;11.070;2022-11-20T12:30:22;97680.84;;;3.55;100.00
70445;BME280;57902;49.638;11.070;2022-11-20T12:35:57;97672.44;;;3.49;100.00
70445;BME280;57902;49.638;11.070;2022-11-20T12:39:02;97686.06;;;3.45;100.00
70445;BME280;57902;49.638;11.070;2022-11-20T12:41:45;97674.19;;;3.44;100.00
70445;BME280;57902;49.638;11.070;2022-11-20T12:44:42;97675.94;;;3.38;100.00
70445;BME280;57902;49.638;11.070;2022-11-20T12:56:38;97670.81;;;3.42;100.00
70445;BME280;57902;49.638;11.070;2022-11-20T13:02:05;97670.84;;;3.36;100.00
70445;BME280;57902;49.638;11.070;2022-11-20T13:05:04;97670.19;;;3.20;100.00
70445;BME280;57902;49.638;11.070;2022-11-20T13:07:34;97677.84;;;3.15;100.00
70445;BME280;57902;49.638;11.070;2022-11-20T13:10:02;97660.00;;;3.20;100.00
70445;BME280;57902;49.638;11.070;2022-11-20T13:12:41;97662.56;;;3.15;100.00
70445;BME280;57902;49.638;11.070;2022-11-20T13:15:39;97669.41;;;3.13;100.00
70445;BME280;57902;49.638;11.070;2022-11-20T13:18:26;97670.28;;;3.08;100.00
70445;BME280;57902;49.638;11.070;2022-11-20T13:20:53;97663.50;;;3.07;100.00
70445;BME280;57902;49.638;11.070;2022-11-20T13:23:27;97662.75;;;3.00;100.00
70445;BME280;57902;49.638;11.070;2022-11-20T13:26:06;97668.66;;;3.02;100.00
70445;BME280;57902;49.638;11.070;2022-11-20T13:28:39;97661.00;;;3.04;100.00
70445;BME280;57902;49.638;11.070;2022-11-20T13:31:28;97657.59;;;3.05;100.00
70445;BME280;57902;49.638;11.070;2022-11-20T13:33:57;97665.25;;;3.03;100.00
70445;BME280;57902;49.638;11.070;2022-11-20T13:36:26;97660.97;;;3.05;100.00
70445;BME280;57902;49.638;11.070;2022-11-20T13:38:55;97652.47;;;3.08;100.00
70445;BME280;57902;49.638;11.070;2022-11-20T13:41:34;97662.72;;;3.02;100.00
70445;BME280;57902;49.638;11.070;2022-11-20T13:46:43;97657.69;;;2.95;100.00
70445;BME280;57902;49.638;11.070;2022-11-20T13:49:33;97661.06;;;2.97;100.00
70445;BME280;57902;49.638;11.070;2022-11-20T13:52:39;97664.47;;;2.95;100.00
70445;BME280;57902;49.638;11.070;2022-11-20T13:59:02;97675.53;;;2.92;100.00
70445;BME280;57902;49.638;11.070;2022-11-20T14:01:41;97675.59;;;2.83;100.00
70445;BME280;57902;49.638;11.070;2022-11-20T14:04:17;97672.25;;;2.81;100.00
70445;BME280;57902;49.638;11.070;2022-11-20T14:06:46;97679.06;;;2.74;100.00
70445;BME280;57902;49.638;11.070;2022-11-20T14:09:25;97670.53;;;2.80;100.00
70445;BME280;57902;49.638;11.070;2022-11-20T14:12:16;97671.41;;;2.79;100.00
70445;BME280;57902;49.638;11.070;2022-11-20T14:14:50;97673.97;;;2.76;100.00
70445;BME280;57902;49.638;11.070;2022-11-20T14:17:21;97662.94;;;2.77;100.00
70445;BME280;57902;49.638;11.070;2022-11-20T14:19:50;97666.31;;;2.79;100.00
70445;BME280;57902;49.638;11.070;2022-11-20T14:22:22;97665.47;;;2.77;100.00
70445;BME280;57902;49.638;11.070;2022-11-20T14:25:03;97673.97;;;2.74;100.00
70445;BME280;57902;49.638;11.070;2022-11-20T14:27:34;97674.03;;;2.70;100.00
70445;BME280;57902;49.638;11.070;2022-11-20T14:30:02;97674.00;;;2.71;100.00
70445;BME280;57902;49.638;11.070;2022-11-20T14:32:30;97665.53;;;2.71;100.00
70445;BME280;57902;49.638;11.070;2022-11-20T14:35:03;97663.81;;;2.73;100.00
70445;BME280;57902;49.638;11.070;2022-11-20T14:37:37;97673.19;;;2.69;100.00
70445;BME280;57902;49.638;11.070;2022-11-20T14:42:54;97669.78;;;2.72;100.00
70445;BME280;57902;49.638;11.070;2022-11-20T14:45:21;97660.41;;;2.74;100.00
70445;BME280;57902;49.638;11.070;2022-11-20T14:47:50;97658.72;;;2.73;100.00
70445;BME280;57902;49.638;11.070;2022-11-20T14:50:26;97661.25;;;2.74;100.00